Virgem Das Dores — CUBQ-8 — position and weather

sailwx.info

Track history (hours):
 
Tides and Currents Weather Stations Pressure Air Temp Water Temp Dewpoint Dewpoint Depression Visibility Wind Speed Wind Dir Waves Ship Positions

Virgem Das Dores

Last reported at 2018-Jun-23 10:35 UTC. Time now 2018-Jun-24 07:18 UTC.
Position N 41°11' W 008°42'.

Length 22 m.

Type: Fishing. MMSI: 204248000.

Date/timePositionNaut miles runAvg speedWind from/ knotsBaromVisibWave heightAir tempDewpointWater temp
2018-Jun-23 10:35N 41°11' W 008°42'0 0.0
2018-Jun-23 10:30N 41°11' W 008°42'0 0.1
2018-Jun-23 10:00N 41°11' W 008°42'0 0.0
2018-Jun-23 09:30N 41°11' W 008°42'0 0.0
2018-Jun-23 08:59N 41°11' W 008°42'0 0.0
2018-Jun-23 08:30N 41°11' W 008°42'0 0.0
2018-Jun-23 08:00N 41°11' W 008°42'0 1.0
2018-Jun-23 07:30N 41°11' W 008°42'2 0.2
2018-Jun-22 22:14N 41°10' W 008°45'2 8.3
2018-Jun-22 22:00N 41°11' W 008°42'0 0.0
2018-Jun-22 09:16N 41°11' W 008°42'0 0.0
2018-Jun-22 09:00N 41°11' W 008°42'0 0.0
2018-Jun-22 08:30N 41°11' W 008°42'0 0.1
2018-Jun-22 08:01N 41°11' W 008°42'1 0.1
2018-Jun-21 21:53N 41°10' W 008°43'1 0.1
2018-Jun-21 10:58N 41°11' W 008°42'0 0.0
2018-Jun-21 10:30N 41°11' W 008°42'0 0.0
2018-Jun-21 10:01N 41°11' W 008°42'0 0.0
2018-Jun-21 09:30N 41°11' W 008°42'2 3.3
2018-Jun-21 09:00N 41°09' W 008°42'1 0.1
2018-Jun-20 22:04N 41°09' W 008°43'110.0
2018-Jun-20 22:00N 41°10' W 008°43'1 0.1
2018-Jun-20 08:13N 41°11' W 008°42'0 0.0
2018-Jun-20 08:00N 41°11' W 008°42'0 0.0
2018-Jun-20 07:30N 41°11' W 008°42'0 0.0
2018-Jun-20 07:00N 41°11' W 008°42'0 0.0
2018-Jun-20 06:30N 41°11' W 008°42'0 0.0
2018-Jun-20 06:00N 41°11' W 008°42'0 0.8
2018-Jun-20 05:30N 41°11' W 008°42'2 0.2
2018-Jun-19 22:18N 41°10' W 008°44'2 6.6
2018-Jun-19 22:00N 41°11' W 008°42'0 0.0
2018-Jun-19 07:55N 41°11' W 008°42'0 0.0
2018-Jun-19 07:30N 41°11' W 008°42'0 0.0
2018-Jun-19 07:00N 41°11' W 008°42'0 0.0
2018-Jun-19 06:30N 41°11' W 008°42'0 0.0
2018-Jun-19 06:01N 41°11' W 008°42'0 0.0
2018-Jun-19 05:30N 41°11' W 008°42'1 0.1
2018-Jun-18 22:22N 41°10' W 008°43'1 0.1
2018-Jun-18 11:45N 41°11' W 008°42'0 0.0
2018-Jun-18 11:29N 41°11' W 008°42'0 0.0
2018-Jun-18 11:01N 41°11' W 008°42'0 0.0
2018-Jun-18 10:30N 41°11' W 008°42'0 0.0
2018-Jun-18 10:00N 41°11' W 008°42'0 0.0
2018-Jun-18 09:30N 41°11' W 008°42'0 0.0
2018-Jun-18 09:00N 41°11' W 008°42'0 0.0
2018-Jun-18 08:30N 41°11' W 008°42'1 1.2
2018-Jun-18 08:00N 41°10' W 008°42'2 0.3
2018-Jun-18 00:43N 41°10' W 008°45'2 7.7
2018-Jun-18 00:30N 41°10' W 008°43'1 2.3
2018-Jun-18 00:00N 41°11' W 008°42'0 0.0
2018-Jun-17 23:30N 41°11' W 008°42'0 0.0
2018-Jun-17 23:00N 41°11' W 008°42'0 0.0
2018-Jun-16 09:43N 41°11' W 008°42'0 0.0
2018-Jun-16 09:31N 41°11' W 008°42'0 0.0
2018-Jun-16 09:00N 41°11' W 008°42'0 0.0
2018-Jun-16 08:30N 41°11' W 008°42'0 0.0
2018-Jun-16 08:00N 41°11' W 008°42'0 0.0
2018-Jun-15 14:15N 41°11' W 008°42'0 0.0
2018-Jun-15 14:00N 41°11' W 008°42'0 0.3
2018-Jun-15 13:31N 41°11' W 008°42'0 0.0
2018-Jun-15 13:00N 41°11' W 008°42'0 0.0
2018-Jun-15 12:31N 41°11' W 008°42'0 0.0
2018-Jun-15 12:01N 41°11' W 008°42'0 0.1
2018-Jun-15 11:30N 41°11' W 008°42'0 0.0
2018-Jun-15 11:01N 41°11' W 008°42'0 0.0
2018-Jun-15 10:30N 41°11' W 008°42'0 0.0
2018-Jun-15 10:00N 41°11' W 008°42'0 0.0
2018-Jun-15 09:31N 41°11' W 008°42'2 0.2
2018-Jun-14 23:00N 41°13' W 008°44'2 4.9
2018-Jun-14 22:31N 41°11' W 008°42'0 0.0
2018-Jun-14 22:00N 41°11' W 008°42'0 0.0
2018-Jun-14 10:59N 41°11' W 008°42'0 0.0
2018-Jun-14 10:30N 41°11' W 008°42'0 0.1
2018-Jun-14 07:43N 41°11' W 008°42'210.0
2018-Jun-14 07:30N 41°09' W 008°43'2 0.3
2018-Jun-14 01:02N 41°09' W 008°46'0 9.5
2018-Jun-14 01:00N 41°09' W 008°45'3 5.2
2018-Jun-14 00:30N 41°10' W 008°42'1 1.4
2018-Jun-14 00:00N 41°11' W 008°42'0 0.0
2018-Jun-13 23:30N 41°11' W 008°42'0 0.0
2018-Jun-13 23:00N 41°11' W 008°42'0 0.0
2018-Jun-13 22:31N 41°11' W 008°42'0 0.0
2018-Jun-13 22:00N 41°11' W 008°42'  
Track history (hours):
 
Tides and Currents Weather Stations Pressure Air Temp Water Temp Dewpoint Dewpoint Depression Visibility Wind Speed Wind Dir Waves Ship Positions

Virgem Das Dores

Last reported at 2018-Jun-23 10:35 UTC. Time now 2018-Jun-24 07:18 UTC.
Position N 41°11' W 008°42'.

Length 22 m.

Type: Fishing. MMSI: 204248000.

Date/timePositionNaut miles runAvg speedWind from/ knotsBaromVisibWave heightAir tempDewpointWater temp
2018-Jun-23 10:35N 41°11' W 008°42'0 0.0
2018-Jun-23 10:30N 41°11' W 008°42'0 0.1
2018-Jun-23 10:00N 41°11' W 008°42'0 0.0
2018-Jun-23 09:30N 41°11' W 008°42'0 0.0
2018-Jun-23 08:59N 41°11' W 008°42'0 0.0
2018-Jun-23 08:30N 41°11' W 008°42'0 0.0
2018-Jun-23 08:00N 41°11' W 008°42'0 1.0
2018-Jun-23 07:30N 41°11' W 008°42'2 0.2
2018-Jun-22 22:14N 41°10' W 008°45'2 8.3
2018-Jun-22 22:00N 41°11' W 008°42'0 0.0
2018-Jun-22 09:16N 41°11' W 008°42'0 0.0
2018-Jun-22 09:00N 41°11' W 008°42'0 0.0
2018-Jun-22 08:30N 41°11' W 008°42'0 0.1
2018-Jun-22 08:01N 41°11' W 008°42'1 0.1
2018-Jun-21 21:53N 41°10' W 008°43'1 0.1
2018-Jun-21 10:58N 41°11' W 008°42'0 0.0
2018-Jun-21 10:30N 41°11' W 008°42'0 0.0
2018-Jun-21 10:01N 41°11' W 008°42'0 0.0
2018-Jun-21 09:30N 41°11' W 008°42'2 3.3
2018-Jun-21 09:00N 41°09' W 008°42'1 0.1
2018-Jun-20 22:04N 41°09' W 008°43'110.0
2018-Jun-20 22:00N 41°10' W 008°43'1 0.1
2018-Jun-20 08:13N 41°11' W 008°42'0 0.0
2018-Jun-20 08:00N 41°11' W 008°42'0 0.0
2018-Jun-20 07:30N 41°11' W 008°42'0 0.0
2018-Jun-20 07:00N 41°11' W 008°42'0 0.0
2018-Jun-20 06:30N 41°11' W 008°42'0 0.0
2018-Jun-20 06:00N 41°11' W 008°42'0 0.8
2018-Jun-20 05:30N 41°11' W 008°42'2 0.2
2018-Jun-19 22:18N 41°10' W 008°44'2 6.6
2018-Jun-19 22:00N 41°11' W 008°42'0 0.0
2018-Jun-19 07:55N 41°11' W 008°42'0 0.0
2018-Jun-19 07:30N 41°11' W 008°42'0 0.0
2018-Jun-19 07:00N 41°11' W 008°42'0 0.0
2018-Jun-19 06:30N 41°11' W 008°42'0 0.0
2018-Jun-19 06:01N 41°11' W 008°42'0 0.0
2018-Jun-19 05:30N 41°11' W 008°42'1 0.1
2018-Jun-18 22:22N 41°10' W 008°43'1 0.1
2018-Jun-18 11:45N 41°11' W 008°42'0 0.0
2018-Jun-18 11:29N 41°11' W 008°42'0 0.0
2018-Jun-18 11:01N 41°11' W 008°42'0 0.0
2018-Jun-18 10:30N 41°11' W 008°42'0 0.0
2018-Jun-18 10:00N 41°11' W 008°42'0 0.0
2018-Jun-18 09:30N 41°11' W 008°42'0 0.0
2018-Jun-18 09:00N 41°11' W 008°42'0 0.0
2018-Jun-18 08:30N 41°11' W 008°42'1 1.2
2018-Jun-18 08:00N 41°10' W 008°42'2 0.3
2018-Jun-18 00:43N 41°10' W 008°45'2 7.7
2018-Jun-18 00:30N 41°10' W 008°43'1 2.3
2018-Jun-18 00:00N 41°11' W 008°42'0 0.0
2018-Jun-17 23:30N 41°11' W 008°42'0 0.0
2018-Jun-17 23:00N 41°11' W 008°42'0 0.0
2018-Jun-16 09:43N 41°11' W 008°42'0 0.0
2018-Jun-16 09:31N 41°11' W 008°42'0 0.0
2018-Jun-16 09:00N 41°11' W 008°42'0 0.0
2018-Jun-16 08:30N 41°11' W 008°42'0 0.0
2018-Jun-16 08:00N 41°11' W 008°42'0 0.0
2018-Jun-15 14:15N 41°11' W 008°42'0 0.0
2018-Jun-15 14:00N 41°11' W 008°42'0 0.3
2018-Jun-15 13:31N 41°11' W 008°42'0 0.0
2018-Jun-15 13:00N 41°11' W 008°42'0 0.0
2018-Jun-15 12:31N 41°11' W 008°42'0 0.0
2018-Jun-15 12:01N 41°11' W 008°42'0 0.1
2018-Jun-15 11:30N 41°11' W 008°42'0 0.0
2018-Jun-15 11:01N 41°11' W 008°42'0 0.0
2018-Jun-15 10:30N 41°11' W 008°42'0 0.0
2018-Jun-15 10:00N 41°11' W 008°42'0 0.0
2018-Jun-15 09:31N 41°11' W 008°42'2 0.2
2018-Jun-14 23:00N 41°13' W 008°44'2 4.9
2018-Jun-14 22:31N 41°11' W 008°42'0 0.0
2018-Jun-14 22:00N 41°11' W 008°42'0 0.0
2018-Jun-14 10:59N 41°11' W 008°42'0 0.0
2018-Jun-14 10:30N 41°11' W 008°42'0 0.1
2018-Jun-14 07:43N 41°11' W 008°42'210.0
2018-Jun-14 07:30N 41°09' W 008°43'2 0.3
2018-Jun-14 01:02N 41°09' W 008°46'0 9.5
2018-Jun-14 01:00N 41°09' W 008°45'3 5.2
2018-Jun-14 00:30N 41°10' W 008°42'1 1.4
2018-Jun-14 00:00N 41°11' W 008°42'0 0.0
2018-Jun-13 23:30N 41°11' W 008°42'0 0.0
2018-Jun-13 23:00N 41°11' W 008°42'0 0.0
2018-Jun-13 22:31N 41°11' W 008°42'0 0.0
2018-Jun-13 22:00N 41°11' W 008°42'  

Dump ship's entire track history